หน้าหลัก
METAR-TAF:

METAR-TAF

ท่าอากาศยาน :

แท่นขุดเจาะน้ำมัน

Troll A, นอร์เวย์

ละติจูด: 60-38-42N, ลองจิจูด: 3-43-29E, ความสูง: 20 ม.

การสังเกตสภาพอากาศปัจจุบัน

รายงานได้ทำขึ้นเมื่อ 45 นาทีที่แล้ว ณ เวลา 23:20 UTC
ลม 34 นอตจากเหนือ/ตะวันตกเฉียงเหนือ
อุณหภูมิ 10°C
ความชื้น 93%
ความกดอากาศ 1012 hPa
ทัศนวิสัย: 6000 ม.
ฝนโปรยปรายเล็กน้อย,

METAR: ENQA 182320Z AUTO 34034KT 6000 -SHRA OVC006/// 10/09 Q1012 W///S5

เวลา: 02:05 (00:05 UTC)


TAF: หายไป

สังเกตการณ์สภาพอากาศและพยากรณ์อากาศของสนามบินมากกว่า 4000 แห่ง (รายงาน METAR และ TAF).

สถานีที่ดูได้จะแสดงไว้ด้วยจุดสีเหลืองและสีแดงบนแผนที่.

เลื่อนเมาส์ไปเหนือจุดเพื่อดูชื่อสถานี.

แล้วคลิกเพื่อดูสังเกตการณ์และการพยากรณ์สภาพอากาศ.

ในการเปลี่ยนแผนที่: คลิกที่ปุ่มสีเขียวที่มีกากบาทสีดำเพื่อซูมเข้า; ที่ปุ่มสีเขียวที่มีขีดเพื่อซูมออก; หรือที่ลูกศรสีเขียวเพื่อไปยังแผนที่ที่อยู่ติดกัน.


METAR-TAF: